Time;durP1;ratioP1;P1;durP2;ratioP2;P2;SDS_P1;SDS_P2;PMS_P1;PMS_P2;Temp;Humidity;BMP_temperature;BMP_pressure;BME280_temperature;BME280_humidity;BME280_pressure;Samples;Min_cycle;Max_cycle;Signal;HPM_P1;HPM_P2
2023/09/12 00:02:26;;;;;;;36.35;28.02;;;19.50;99.90;;;;;;4939354;28;20078;-72
2023/09/12 00:04:52;;;;;;;36.10;27.90;;;19.50;99.90;;;;;;4901319;28;31282;-72
2023/09/12 00:07:18;;;;;;;39.75;29.73;;;19.60;99.90;;;;;;4937664;28;20633;-72
2023/09/12 00:09:44;;;;;;;33.88;27.10;;;19.60;99.90;;;;;;4885379;28;206087;-72
2023/09/12 00:12:14;;;;;;;36.13;27.70;;;19.60;99.90;;;;;;4931459;29;20063;-73
2023/09/12 00:14:40;;;;;;;37.20;29.63;;;19.60;99.90;;;;;;4913057;28;209862;-72
2023/09/12 00:17:06;;;;;;;42.83;31.15;;;19.60;99.90;;;;;;4948210;28;20055;-73
2023/09/12 00:19:32;;;;;;;40.95;31.83;;;19.60;99.90;;;;;;4918482;28;205538;-72
2023/09/12 00:21:59;;;;;;;43.60;32.15;;;19.50;99.90;;;;;;4954815;28;20062;-73
2023/09/12 00:24:25;;;;;;;42.58;31.70;;;19.50;99.90;;;;;;4874751;28;55210;-73
2023/09/12 00:26:51;;;;;;;38.15;28.90;;;19.40;99.90;;;;;;4947007;28;20054;-73
2023/09/12 00:29:17;;;;;;;38.63;30.60;;;19.40;99.90;;;;;;4901358;28;236263;-72
2023/09/12 00:31:43;;;;;;;35.67;28.13;;;19.40;99.90;;;;;;4949960;28;20080;-72
2023/09/12 00:34:09;;;;;;;37.60;29.23;;;19.40;99.90;;;;;;4900263;28;56808;-72
2023/09/12 00:36:37;;;;;;;36.53;29.90;;;19.40;99.90;;;;;;4936441;28;20672;-72
2023/09/12 00:39:03;;;;;;;39.95;29.80;;;19.40;99.90;;;;;;4909023;28;27812;-71
2023/09/12 00:41:29;;;;;;;36.85;30.38;;;19.40;99.90;;;;;;4943506;28;20071;-72
2023/09/12 00:43:56;;;;;;;38.95;29.88;;;19.40;99.90;;;;;;4880822;28;114896;-72
2023/09/12 00:46:23;;;;;;;38.28;29.15;;;19.40;99.90;;;;;;4939232;28;20059;-72
2023/09/12 00:48:50;;;;;;;36.60;26.92;;;19.30;99.90;;;;;;4910297;28;90279;-73
2023/09/12 00:51:17;;;;;;;34.50;27.60;;;19.40;99.90;;;;;;4938873;28;20054;-72
2023/09/12 00:53:44;;;;;;;37.25;28.70;;;19.40;99.90;;;;;;4893220;28;148379;-72
2023/09/12 00:56:10;;;;;;;39.10;29.67;;;19.40;99.90;;;;;;4951258;28;20066;-71
2023/09/12 00:58:37;;;;;;;42.42;30.88;;;19.40;99.90;;;;;;4902839;28;24314;-71
2023/09/12 01:01:04;;;;;;;42.90;31.30;;;19.40;99.90;;;;;;4942336;28;20058;-71
2023/09/12 01:03:31;;;;;;;39.97;31.42;;;19.30;99.90;;;;;;4909498;28;155833;-72
2023/09/12 01:05:58;;;;;;;39.30;29.35;;;19.30;99.90;;;;;;4946945;28;20046;-73
2023/09/12 01:08:25;;;;;;;40.15;30.63;;;19.30;99.90;;;;;;4905625;28;229696;-72
2023/09/12 01:10:53;;;;;;;40.35;29.63;;;19.30;99.90;;;;;;4951024;28;20054;-72
2023/09/12 01:13:19;;;;;;;41.53;31.58;;;19.30;99.90;;;;;;4920090;28;20042;-72
2023/09/12 01:15:45;;;;;;;42.03;32.13;;;19.30;99.90;;;;;;4940604;28;20047;-72
2023/09/12 01:18:11;;;;;;;41.78;32.20;;;19.30;99.90;;;;;;4910084;28;20055;-72
2023/09/12 01:20:40;;;;;;;39.10;29.75;;;19.30;99.90;;;;;;4953864;28;20043;-72
2023/09/12 01:23:28;;;;;;;43.33;32.85;;;19.30;99.90;;;;;;4906772;28;20058;-72
2023/09/12 01:26:08;;;;;;;38.40;29.90;;;19.30;99.90;;;;;;4946244;28;20062;-72
2023/09/12 01:28:37;;;;;;;39.28;32.05;;;19.30;99.90;;;;;;4907071;28;124973;-72
2023/09/12 01:31:03;;;;;;;43.28;33.83;;;19.30;99.90;;;;;;4951998;28;20066;-71
2023/09/12 01:33:29;;;;;;;42.72;33.00;;;19.30;99.90;;;;;;4906427;28;37400;-72
2023/09/12 01:35:55;;;;;;;43.92;33.03;;;19.30;99.90;;;;;;4934544;28;20066;-73
2023/09/12 01:38:22;;;;;;;40.35;33.08;;;19.30;99.90;;;;;;4901714;28;227118;-72
2023/09/12 01:40:51;;;;;;;40.38;32.92;;;19.30;99.90;;;;;;4955032;28;20070;-72
2023/09/12 01:43:20;;;;;;;36.97;29.80;;;19.30;99.90;;;;;;4906876;28;193602;-72
2023/09/12 01:45:49;;;;;;;36.53;29.20;;;19.30;99.90;;;;;;4948746;28;20051;-72
2023/09/12 01:48:20;;;;;;;43.47;32.53;;;19.30;99.90;;;;;;4908641;28;130044;-72
2023/09/12 01:50:47;;;;;;;42.40;32.97;;;19.30;99.90;;;;;;4956000;28;20039;-71
2023/09/12 01:53:14;;;;;;;43.85;33.80;;;19.20;99.90;;;;;;4882792;28;238358;-72
2023/09/12 01:55:43;;;;;;;44.63;32.92;;;19.20;99.90;;;;;;4942980;28;20433;-72
2023/09/12 01:58:09;;;;;;;36.72;29.65;;;19.10;99.90;;;;;;4905293;28;197061;-70
2023/09/12 02:00:36;;;;;;;47.75;35.17;;;19.10;99.90;;;;;;4951599;28;20055;-71
2023/09/12 02:03:03;;;;;;;42.33;32.63;;;19.10;99.90;;;;;;4905314;28;25153;-71
2023/09/12 02:05:30;;;;;;;38.70;31.33;;;19.10;99.90;;;;;;4942109;28;20059;-71
2023/09/12 02:07:56;;;;;;;43.78;33.55;;;19.10;99.90;;;;;;4920393;28;84547;-72
2023/09/12 02:10:22;;;;;;;40.78;31.98;;;19.10;99.90;;;;;;4957046;28;20066;-71
2023/09/12 02:12:48;;;;;;;41.92;30.52;;;19.10;99.90;;;;;;4910703;28;26235;-69
2023/09/12 02:15:14;;;;;;;45.97;31.98;;;19.10;99.90;;;;;;4936214;28;20051;-71
2023/09/12 02:17:41;;;;;;;45.00;33.75;;;19.20;99.90;;;;;;4932030;28;21361;-71
2023/09/12 02:20:09;;;;;;;50.38;35.33;;;19.20;99.90;;;;;;4910950;28;160692;-71
2023/09/12 02:22:35;;;;;;;44.58;35.20;;;19.10;99.90;;;;;;4914442;28;20066;-72
2023/09/12 02:25:06;;;;;;;47.78;35.10;;;19.10;99.90;;;;;;4927454;28;170445;-71
2023/09/12 02:27:32;;;;;;;47.00;34.35;;;19.10;99.90;;;;;;4927080;28;20062;-70
2023/09/12 02:29:58;;;;;;;44.45;33.90;;;19.10;99.90;;;;;;4907295;28;44852;-71
2023/09/12 02:32:24;;;;;;;43.53;33.72;;;19.10;99.90;;;;;;4935655;28;20066;-70
2023/09/12 02:34:50;;;;;;;43.65;32.97;;;19.10;99.90;;;;;;4916571;28;158846;-71
2023/09/12 02:37:16;;;;;;;49.00;33.53;;;19.10;99.90;;;;;;4944262;28;20059;-71
2023/09/12 02:39:42;;;;;;;45.60;33.90;;;19.10;99.90;;;;;;4910354;28;167980;-71
2023/09/12 02:42:08;;;;;;;47.08;34.53;;;19.10;99.90;;;;;;4941306;28;20043;-71
2023/09/12 02:44:35;;;;;;;41.53;32.17;;;19.10;99.90;;;;;;4921045;28;114310;-71
2023/09/12 02:47:01;;;;;;;47.58;35.28;;;19.10;99.90;;;;;;4949502;28;20055;-71
2023/09/12 02:49:27;;;;;;;44.75;33.45;;;19.10;99.90;;;;;;4911724;28;31325;-72
2023/09/12 02:51:53;;;;;;;50.08;36.30;;;19.10;99.90;;;;;;4948249;28;20064;-71
2023/09/12 02:54:19;;;;;;;42.95;33.08;;;19.10;99.90;;;;;;4894505;28;135343;-72
2023/09/12 02:56:45;;;;;;;48.20;33.33;;;19.10;99.90;;;;;;4943806;28;20058;-71
2023/09/12 02:59:11;;;;;;;48.20;34.65;;;19.10;99.90;;;;;;4919291;28;127189;-70
2023/09/12 03:01:37;;;;;;;43.78;33.33;;;19.10;99.90;;;;;;4946893;28;20059;-71
2023/09/12 03:04:04;;;;;;;40.03;32.33;;;19.10;99.90;;;;;;4911988;28;133648;-71
2023/09/12 03:06:30;;;;;;;40.20;31.45;;;19.10;99.90;;;;;;4942806;28;20063;-72
2023/09/12 03:08:57;;;;;;;39.50;31.63;;;19.10;99.90;;;;;;4906144;28;32601;-71
2023/09/12 03:11:25;;;;;;;40.25;29.35;;;19.10;99.90;;;;;;4945031;28;20137;-71
2023/09/12 03:13:51;;;;;;;45.28;35.42;;;19.00;99.90;;;;;;4903621;28;158124;-71
2023/09/12 03:16:17;;;;;;;46.00;30.10;;;19.00;99.90;;;;;;4945530;28;20051;-71
2023/09/12 03:18:43;;;;;;;43.95;32.65;;;18.90;99.90;;;;;;4916123;28;60315;-71
2023/09/12 03:21:09;;;;;;;38.03;29.42;;;18.90;99.90;;;;;;4952839;28;20540;-71
2023/09/12 03:23:35;;;;;;;40.85;30.60;;;18.80;99.90;;;;;;4902028;28;170288;-71
2023/09/12 03:26:06;;;;;;;38.17;30.00;;;18.80;99.90;;;;;;4940785;28;20051;-71
2023/09/12 03:28:32;;;;;;;47.10;33.67;;;18.70;99.90;;;;;;4903328;28;173092;-71
2023/09/12 03:31:13;;;;;;;42.15;30.83;;;18.70;99.90;;;;;;4946383;28;20699;-70
2023/09/12 03:33:40;;;;;;;38.92;31.45;;;18.70;99.90;;;;;;4905842;28;73966;-71
2023/09/12 03:36:07;;;;;;;41.60;31.55;;;18.70;99.90;;;;;;4950859;28;20059;-71
2023/09/12 03:38:34;;;;;;;40.58;31.25;;;18.70;99.90;;;;;;4915648;28;20544;-71
2023/09/12 03:41:01;;;;;;;45.13;33.88;;;18.70;99.90;;;;;;4941675;28;20059;-70
2023/09/12 03:43:27;;;;;;;43.08;32.60;;;18.70;99.90;;;;;;4912971;28;78868;-71
2023/09/12 03:45:53;;;;;;;46.05;34.22;;;18.70;99.90;;;;;;4929591;28;20056;-70
2023/09/12 03:48:19;;;;;;;39.95;31.50;;;18.70;99.90;;;;;;4906102;28;232964;-70
2023/09/12 03:50:45;;;;;;;45.40;33.25;;;18.80;99.90;;;;;;4951368;28;20059;-71
2023/09/12 03:53:14;;;;;;;45.85;32.47;;;18.70;99.90;;;;;;4883252;28;208569;-71
2023/09/12 03:55:41;;;;;;;43.90;34.00;;;18.70;99.90;;;;;;4946974;28;20497;-70
2023/09/12 03:58:07;;;;;;;61.58;38.40;;;18.70;99.90;;;;;;4907640;28;91414;-70
2023/09/12 04:00:33;;;;;;;113.82;38.97;;;18.70;99.90;;;;;;4954427;28;20070;-72
2023/09/12 04:02:59;;;;;;;94.50;37.75;;;18.60;99.90;;;;;;4896500;28;170276;-71
2023/09/12 04:05:26;;;;;;;106.53;37.22;;;18.50;99.90;;;;;;4915022;28;20560;-71
2023/09/12 04:07:52;;;;;;;65.28;35.85;;;18.50;99.90;;;;;;4908635;28;35612;-71
2023/09/12 04:10:20;;;;;;;73.88;37.38;;;18.50;99.90;;;;;;4937719;28;20410;-71
2023/09/12 04:12:46;;;;;;;73.47;36.90;;;18.50;99.90;;;;;;4915015;28;20059;-71
2023/09/12 04:15:13;;;;;;;139.65;38.92;;;18.50;99.90;;;;;;4944450;28;74231;-71
2023/09/12 04:17:39;;;;;;;79.32;35.80;;;18.50;99.90;;;;;;4912161;28;20069;-71
2023/09/12 04:20:06;;;;;;;82.00;35.35;;;18.40;99.90;;;;;;4931037;28;68538;-70
2023/09/12 04:22:33;;;;;;;78.07;35.60;;;18.40;99.90;;;;;;4908307;28;20055;-70
2023/09/12 04:24:59;;;;;;;160.00;37.83;;;18.40;99.90;;;;;;4927442;28;249438;-71
2023/09/12 04:27:25;;;;;;;77.53;34.38;;;18.40;99.90;;;;;;4926658;28;20046;-69
2023/09/12 04:29:51;;;;;;;83.38;32.35;;;18.40;99.90;;;;;;4913482;28;128563;-71
2023/09/12 04:32:23;;;;;;;94.97;32.35;;;18.30;99.90;;;;;;4943536;28;21320;-70
2023/09/12 04:34:49;;;;;;;73.43;32.38;;;18.30;99.90;;;;;;4883259;28;250519;-71
2023/09/12 04:37:16;;;;;;;206.40;32.55;;;18.30;99.90;;;;;;4947041;28;20136;-71
2023/09/12 04:39:42;;;;;;;142.05;33.00;;;18.30;99.90;;;;;;4897947;28;182642;-71
2023/09/12 04:42:08;;;;;;;101.78;32.10;;;18.20;99.90;;;;;;4941311;28;20291;-71
2023/09/12 04:44:35;;;;;;;164.90;34.17;;;18.20;99.90;;;;;;4880150;28;104210;-71
2023/09/12 04:47:02;;;;;;;145.98;35.10;;;18.20;99.90;;;;;;4939581;28;20047;-72
2023/09/12 04:49:28;;;;;;;131.88;33.92;;;18.10;99.90;;;;;;4902699;28;160497;-72
2023/09/12 04:51:54;;;;;;;117.43;34.70;;;18.10;99.90;;;;;;4962452;28;20047;-71
2023/09/12 04:54:20;;;;;;;140.35;39.13;;;18.10;99.90;;;;;;4909854;28;73131;-71
2023/09/12 04:56:47;;;;;;;122.95;36.65;;;18.10;99.90;;;;;;4940033;28;20147;-71
2023/09/12 04:59:13;;;;;;;121.55;37.38;;;18.00;99.90;;;;;;4874937;28;20051;-71
2023/09/12 05:01:39;;;;;;;119.80;37.78;;;18.00;99.90;;;;;;4940801;28;20077;-71
2023/09/12 05:04:05;;;;;;;98.30;40.28;;;18.10;99.90;;;;;;4917816;28;20054;-71
2023/09/12 05:06:31;;;;;;;79.75;37.97;;;18.10;99.90;;;;;;4944249;28;20062;-70
2023/09/12 05:08:58;;;;;;;110.63;38.65;;;18.00;99.90;;;;;;4907894;28;20055;-71
2023/09/12 05:11:24;;;;;;;93.10;39.22;;;18.00;99.90;;;;;;4940354;28;20055;-71
2023/09/12 05:13:51;;;;;;;69.03;37.15;;;18.00;99.90;;;;;;4913390;28;20565;-71
2023/09/12 05:16:17;;;;;;;112.53;42.63;;;18.10;99.90;;;;;;4947176;28;20051;-70
2023/09/12 05:18:43;;;;;;;121.53;42.35;;;18.10;99.90;;;;;;4901213;28;20062;-72
2023/09/12 05:21:09;;;;;;;85.25;39.58;;;18.10;99.90;;;;;;4950261;28;20114;-72
2023/09/12 05:23:36;;;;;;;95.70;41.13;;;18.10;99.90;;;;;;4902358;28;20062;-71
2023/09/12 05:26:02;;;;;;;109.38;42.95;;;18.10;99.90;;;;;;4937351;28;20132;-71
2023/09/12 05:28:28;;;;;;;67.45;39.35;;;18.10;99.90;;;;;;4905839;28;20576;-70
2023/09/12 05:30:55;;;;;;;96.65;43.80;;;18.10;99.90;;;;;;4945285;28;20425;-70
2023/09/12 05:33:21;;;;;;;126.57;44.88;;;18.10;99.90;;;;;;4900805;28;20079;-71
2023/09/12 05:35:47;;;;;;;102.22;42.40;;;18.10;99.90;;;;;;4935182;28;20510;-72
2023/09/12 05:38:13;;;;;;;101.97;40.97;;;18.10;99.90;;;;;;4900485;28;20062;-71
2023/09/12 05:40:39;;;;;;;216.27;47.28;;;18.10;99.90;;;;;;4940235;28;20429;-70
2023/09/12 05:43:05;;;;;;;103.53;42.88;;;18.10;99.90;;;;;;4921871;28;20067;-71
2023/09/12 05:45:32;;;;;;;139.70;46.00;;;18.10;99.90;;;;;;4952826;28;20417;-71
2023/09/12 05:47:59;;;;;;;119.03;48.30;;;18.10;99.90;;;;;;4899410;28;20055;-71
2023/09/12 05:50:25;;;;;;;95.72;45.67;;;18.10;99.90;;;;;;4949736;28;20055;-71
2023/09/12 05:52:51;;;;;;;89.38;44.90;;;18.10;99.90;;;;;;4892747;28;129893;-71
2023/09/12 05:55:18;;;;;;;88.95;45.63;;;18.20;99.90;;;;;;4940237;28;20063;-72
2023/09/12 05:57:44;;;;;;;69.25;42.85;;;18.20;99.90;;;;;;4908723;28;20052;-70
2023/09/12 06:00:11;;;;;;;78.25;42.47;;;18.30;99.90;;;;;;4954917;28;20059;-72
2023/09/12 06:02:42;;;;;;;82.88;44.83;;;18.30;99.90;;;;;;4908580;28;20533;-70
2023/09/12 06:05:08;;;;;;;73.22;42.75;;;18.40;99.90;;;;;;4941638;28;20059;-72
2023/09/12 06:07:35;;;;;;;75.25;43.45;;;18.40;99.90;;;;;;4906911;28;20055;-71
2023/09/12 06:10:01;;;;;;;81.03;44.08;;;18.40;99.90;;;;;;4943920;28;20086;-71
2023/09/12 06:12:27;;;;;;;82.57;44.33;;;18.40;99.90;;;;;;4927821;28;20059;-72
2023/09/12 06:14:55;;;;;;;74.25;42.97;;;18.50;99.90;;;;;;4940040;28;20058;-71
2023/09/12 06:17:22;;;;;;;61.13;40.47;;;18.50;99.90;;;;;;4936122;28;20089;-71
2023/09/12 06:19:51;;;;;;;57.88;38.55;;;18.50;99.90;;;;;;4907396;28;20077;-72
2023/09/12 06:22:18;;;;;;;68.97;42.20;;;18.60;99.90;;;;;;4945243;28;20560;-71
2023/09/12 06:24:44;;;;;;;65.47;40.75;;;18.60;99.90;;;;;;4925387;28;20062;-71
2023/09/12 06:27:13;;;;;;;68.10;40.78;;;18.60;99.90;;;;;;4948916;28;20051;-69
2023/09/12 06:29:39;;;;;;;95.78;40.78;;;18.60;99.90;;;;;;4907746;28;20538;-70
2023/09/12 06:32:05;;;;;;;74.43;39.53;;;18.60;99.90;;;;;;4957571;28;20334;-71
2023/09/12 06:34:31;;;;;;;78.22;40.40;;;18.60;99.90;;;;;;4915787;28;20059;-72
2023/09/12 06:36:57;;;;;;;61.83;38.88;;;18.60;99.90;;;;;;4942513;28;20485;-72
2023/09/12 06:39:24;;;;;;;59.05;38.00;;;18.60;99.90;;;;;;4922946;28;20390;-71
2023/09/12 06:41:50;;;;;;;72.45;39.10;;;18.70;99.90;;;;;;4946423;28;20047;-71
2023/09/12 06:44:16;;;;;;;59.97;36.53;;;18.70;99.90;;;;;;4919986;28;20062;-72
2023/09/12 06:46:42;;;;;;;58.30;37.00;;;18.80;99.90;;;;;;4945592;28;20524;-73
2023/09/12 06:49:09;;;;;;;55.70;34.58;;;18.90;99.90;;;;;;4906565;28;20066;-73
2023/09/12 06:51:35;;;;;;;59.90;35.75;;;18.90;99.90;;;;;;4946627;28;20054;-72
2023/09/12 06:54:02;;;;;;;59.92;35.40;;;18.90;99.90;;;;;;4898065;28;61365;-72
2023/09/12 06:56:28;;;;;;;50.60;35.60;;;18.90;99.90;;;;;;4952471;28;20409;-73
2023/09/12 06:58:55;;;;;;;55.03;35.67;;;18.90;99.90;;;;;;4917136;28;20111;-73
2023/09/12 07:01:21;;;;;;;52.80;34.45;;;19.00;99.90;;;;;;4949940;28;20080;-72
2023/09/12 07:03:48;;;;;;;48.53;34.83;;;19.10;99.90;;;;;;4919206;28;20062;-74
2023/09/12 07:06:14;;;;;;;46.42;33.72;;;19.10;99.90;;;;;;4952859;28;20062;-71
2023/09/12 07:08:40;;;;;;;48.17;33.97;;;19.20;99.90;;;;;;4909044;28;20054;-72
2023/09/12 07:11:06;;;;;;;48.75;33.63;;;19.10;99.90;;;;;;4945843;28;20063;-72
2023/09/12 07:13:33;;;;;;;48.78;32.75;;;19.10;99.90;;;;;;4924659;28;20054;-71
2023/09/12 07:15:59;;;;;;;51.25;34.25;;;19.10;99.90;;;;;;4954787;28;20047;-71
2023/09/12 07:18:25;;;;;;;46.15;32.65;;;19.00;99.90;;;;;;4925511;28;20047;-72
2023/09/12 07:21:02;;;;;;;47.40;33.35;;;18.90;99.90;;;;;;4952804;28;20059;-71
2023/09/12 07:23:28;;;;;;;46.00;33.08;;;19.00;99.90;;;;;;4913861;28;20051;-72
2023/09/12 07:25:57;;;;;;;43.15;32.88;;;19.10;99.90;;;;;;4955124;28;20532;-72
2023/09/12 07:28:24;;;;;;;45.67;33.00;;;19.20;99.90;;;;;;4907879;28;20097;-73
2023/09/12 07:30:50;;;;;;;43.22;32.25;;;19.20;99.90;;;;;;4943344;28;20055;-72
2023/09/12 07:33:16;;;;;;;44.60;33.35;;;19.20;99.90;;;;;;4903850;28;20074;-71
2023/09/12 07:35:42;;;;;;;45.72;33.13;;;19.30;99.90;;;;;;4946826;28;20059;-71
2023/09/12 07:38:08;;;;;;;50.80;34.70;;;19.30;99.90;;;;;;4914481;28;20056;-71
2023/09/12 07:40:34;;;;;;;45.17;32.25;;;19.40;99.90;;;;;;4956774;28;20070;-70
2023/09/12 07:43:00;;;;;;;46.33;33.80;;;19.60;99.90;;;;;;4910735;28;20109;-71
2023/09/12 07:45:27;;;;;;;44.45;34.70;;;19.70;99.90;;;;;;4959283;28;20066;-72
2023/09/12 07:47:53;;;;;;;48.85;32.67;;;19.70;99.90;;;;;;4925826;28;20058;-72
2023/09/12 07:50:20;;;;;;;50.45;34.85;;;19.70;99.90;;;;;;4927403;28;20061;-72
2023/09/12 07:52:46;;;;;;;49.30;32.92;;;19.70;99.90;;;;;;4896707;28;50386;-73
2023/09/12 07:55:12;;;;;;;45.67;35.17;;;19.70;99.90;;;;;;4914385;28;20057;-73
2023/09/12 07:57:38;;;;;;;42.55;31.60;;;19.80;99.90;;;;;;4909472;28;20051;-71
2023/09/12 08:00:10;;;;;;;42.05;33.53;;;19.90;99.90;;;;;;4956379;28;20399;-72
2023/09/12 08:02:36;;;;;;;46.75;33.45;;;19.90;99.90;;;;;;4909765;28;20055;-72
2023/09/12 08:05:03;;;;;;;43.40;33.45;;;20.00;99.90;;;;;;4945387;28;20052;-71
2023/09/12 08:07:29;;;;;;;45.83;34.40;;;20.10;99.90;;;;;;4919909;28;20058;-69
2023/09/12 08:09:57;;;;;;;46.50;33.38;;;20.00;99.90;;;;;;4929702;28;20051;-71
2023/09/12 08:12:26;;;;;;;41.13;32.22;;;20.10;99.90;;;;;;4929502;28;20051;-72
2023/09/12 08:14:53;;;;;;;44.38;33.85;;;20.20;99.90;;;;;;4897887;28;191631;-71
2023/09/12 08:17:19;;;;;;;41.55;32.78;;;20.20;99.90;;;;;;4944608;28;20058;-71
2023/09/12 08:19:46;;;;;;;42.92;33.33;;;20.30;99.90;;;;;;4887019;28;20494;-72
2023/09/12 08:22:13;;;;;;;43.83;33.72;;;20.20;99.90;;;;;;4944660;28;20047;-72
2023/09/12 08:24:39;;;;;;;41.67;32.47;;;20.20;99.90;;;;;;4912730;28;219266;-72
2023/09/12 08:27:06;;;;;;;43.78;34.10;;;20.20;99.90;;;;;;4946440;28;20055;-71
2023/09/12 08:29:33;;;;;;;45.47;32.47;;;20.10;99.90;;;;;;4916386;28;80459;-71
2023/09/12 08:32:00;;;;;;;42.03;31.95;;;20.10;99.90;;;;;;4944413;28;20419;-70
2023/09/12 08:34:26;;;;;;;42.92;33.30;;;20.10;99.90;;;;;;4905414;28;162667;-72
2023/09/12 08:36:52;;;;;;;42.97;33.25;;;20.00;99.90;;;;;;4949209;28;20054;-71
2023/09/12 08:39:25;;;;;;;46.90;34.95;;;20.00;99.90;;;;;;4919591;28;20058;-72
2023/09/12 08:41:51;;;;;;;45.17;34.60;;;20.10;99.90;;;;;;4947401;28;20524;-72
2023/09/12 08:44:19;;;;;;;41.75;32.90;;;20.10;99.90;;;;;;4907065;28;253511;-72
2023/09/12 08:46:45;;;;;;;44.58;33.95;;;20.10;99.90;;;;;;4944491;28;20059;-71
2023/09/12 08:49:12;;;;;;;48.03;35.55;;;20.10;99.90;;;;;;4908054;28;245984;-72
2023/09/12 08:51:39;;;;;;;50.08;36.35;;;20.20;99.90;;;;;;4942834;28;20047;-71
2023/09/12 08:54:09;;;;;;;45.63;34.65;;;20.30;99.90;;;;;;4886480;28;100675;-72
2023/09/12 08:56:39;;;;;;;46.90;34.85;;;20.40;99.90;;;;;;4937763;28;20066;-71
2023/09/12 08:59:06;;;;;;;48.92;34.53;;;20.50;99.90;;;;;;4914666;28;144794;-71
2023/09/12 09:01:33;;;;;;;48.80;36.67;;;20.50;99.90;;;;;;4946887;28;20063;-72
2023/09/12 09:04:02;;;;;;;49.78;35.03;;;20.70;99.90;;;;;;4899183;28;250584;-72
2023/09/12 09:06:32;;;;;;;45.10;34.58;;;21.00;99.90;;;;;;4948969;28;20513;-72
2023/09/12 09:09:00;;;;;;;48.10;34.78;;;21.20;99.90;;;;;;4913149;28;25578;-72
2023/09/12 09:11:27;;;;;;;47.20;34.45;;;21.50;99.90;;;;;;4946709;28;20059;-72
2023/09/12 09:13:54;;;;;;;45.42;33.35;;;21.80;99.90;;;;;;4914565;28;46367;-72
2023/09/12 09:16:22;;;;;;;45.78;34.42;;;22.00;99.90;;;;;;4942086;28;20067;-72
2023/09/12 09:19:00;;;;;;;46.58;34.38;;;22.30;99.90;;;;;;4915791;28;237779;-71
2023/09/12 09:21:31;;;;;;;45.22;33.58;;;22.30;99.90;;;;;;4943710;28;20067;-72
2023/09/12 09:24:03;;;;;;;;;;;22.30;99.90;;;;;;4918619;28;20858;-71
2023/09/12 09:26:50;;;;;;;44.05;33.40;;;22.10;99.90;;;;;;4950407;28;19919;-72
2023/09/12 09:29:18;;;;;;;42.83;31.92;;;22.20;99.90;;;;;;4916892;28;20051;-71
2023/09/12 09:31:50;;;;;;;42.03;30.92;;;22.20;99.90;;;;;;4946191;28;20043;-72
2023/09/12 09:34:18;;;;;;;42.53;30.85;;;22.10;99.90;;;;;;4905567;28;94860;-72
2023/09/12 09:36:48;;;;;;;41.40;31.08;;;22.20;99.90;;;;;;4935466;28;20047;-72
2023/09/12 09:39:15;;;;;;;42.10;30.83;;;22.30;99.90;;;;;;4904684;28;232746;-71
2023/09/12 09:41:46;;;;;;;42.47;30.60;;;22.40;99.90;;;;;;4947145;28;20059;-71
2023/09/12 09:44:13;;;;;;;38.85;30.65;;;22.50;99.90;;;;;;4919301;28;20055;-71
2023/09/12 09:46:43;;;;;;;38.17;29.52;;;22.60;99.90;;;;;;4946938;28;20062;-71
2023/09/12 09:49:19;;;;;;;38.38;30.58;;;22.60;99.90;;;;;;4920026;28;20089;-71
2023/09/12 09:51:45;;;;;;;40.65;29.73;;;22.60;99.90;;;;;;4945158;28;20069;-72
2023/09/12 09:54:12;;;;;;;42.78;31.00;;;22.50;99.90;;;;;;4908057;28;231577;-72
2023/09/12 09:56:46;;;;;;;37.17;27.40;;;22.60;99.90;;;;;;4947305;28;20054;-71
2023/09/12 09:59:17;;;;;;;39.75;28.92;;;22.60;99.90;;;;;;4897558;28;20050;-72
2023/09/12 10:01:45;;;;;;;37.60;28.23;;;22.80;99.90;;;;;;4946807;28;20078;-71
2023/09/12 10:04:11;;;;;;;40.60;29.73;;;23.00;99.90;;;;;;4917311;28;214657;-71
2023/09/12 10:06:39;;;;;;;37.03;29.85;;;23.10;99.90;;;;;;4950086;28;20051;-71
2023/09/12 10:09:08;;;;;;;39.83;29.17;;;23.30;99.90;;;;;;4909670;28;20399;-71
2023/09/12 10:11:36;;;;;;;35.67;27.92;;;23.50;99.90;;;;;;4943220;28;20059;-70
2023/09/12 10:14:06;;;;;;;35.80;27.60;;;23.80;99.90;;;;;;4909084;28;20054;-70
2023/09/12 10:16:34;;;;;;;35.43;26.73;;;24.20;99.90;;;;;;4945695;28;20070;-70
2023/09/12 10:19:22;;;;;;;32.67;25.42;;;24.50;99.90;;;;;;4919100;28;20050;-71
2023/09/12 10:21:49;;;;;;;33.95;24.80;;;24.80;99.90;;;;;;4948994;28;20051;-71
2023/09/12 10:24:16;;;;;;;33.40;23.65;;;25.00;99.90;;;;;;4906803;28;20051;-70
2023/09/12 10:26:47;;;;;;;30.25;22.75;;;25.10;99.90;;;;;;4944010;28;20066;-72
2023/09/12 10:29:15;;;;;;;36.33;24.10;;;25.30;99.90;;;;;;4905254;28;20058;-72
2023/09/12 10:31:41;;;;;;;30.60;24.08;;;24.90;99.90;;;;;;4942535;28;20457;-70
2023/09/12 10:34:10;;;;;;;31.05;24.52;;;24.50;99.90;;;;;;4916262;28;20664;-71
2023/09/12 10:36:39;;;;;;;30.40;22.88;;;24.00;99.90;;;;;;4940276;28;20074;-71
2023/09/12 10:39:06;;;;;;;31.27;24.15;;;23.90;99.90;;;;;;4920606;28;20059;-71
2023/09/12 10:41:36;;;;;;;31.40;23.10;;;23.90;99.90;;;;;;4946382;28;20236;-71
2023/09/12 10:44:09;;;;;;;28.88;23.40;;;24.00;99.90;;;;;;4908520;28;20058;-71
2023/09/12 10:46:40;;;;;;;32.38;22.30;;;24.20;99.90;;;;;;4944360;28;20056;-70
2023/09/12 10:49:08;;;;;;;29.38;21.88;;;24.40;99.90;;;;;;4912834;28;20098;-71
2023/09/12 10:51:45;;;;;;;31.88;22.27;;;24.60;99.90;;;;;;4947493;28;20062;-71
2023/09/12 10:54:22;;;;;;;27.10;21.25;;;24.60;99.90;;;;;;4897033;28;102444;-71
2023/09/12 10:57:03;;;;;;;26.20;20.63;;;24.70;99.90;;;;;;4940890;28;20509;-72
2023/09/12 10:59:31;;;;;;;26.75;20.67;;;25.00;99.90;;;;;;4923025;28;20054;-71
2023/09/12 11:02:30;;;;;;;26.60;20.50;;;25.10;99.90;;;;;;4948802;28;20042;-71
2023/09/12 11:05:03;;;;;;;29.05;20.30;;;25.20;99.90;;;;;;4906633;28;20043;-71
2023/09/12 11:07:38;;;;;;;28.13;20.23;;;25.20;99.90;;;;;;4924748;28;20051;-70
2023/09/12 11:10:18;;;;;;;25.52;19.63;;;25.30;99.90;;;;;;4934897;28;20608;-71
2023/09/12 11:12:46;;;;;;;25.50;19.05;;;25.40;99.90;;;;;;4911346;28;20434;-71
2023/09/12 11:15:13;;;;;;;22.50;16.65;;;25.60;99.90;;;;;;4943216;28;20051;-71
2023/09/12 11:17:40;;;;;;;26.27;17.35;;;25.70;99.90;;;;;;4923986;28;20031;-70
2023/09/12 11:20:10;;;;;;;22.20;17.27;;;26.20;99.90;;;;;;4956221;28;20055;-70
2023/09/12 11:22:39;;;;;;;25.02;17.05;;;26.30;99.90;;;;;;4909933;28;20058;-70
2023/09/12 11:25:15;;;;;;;23.20;17.55;;;26.50;99.90;;;;;;4943547;28;20055;-71
2023/09/12 11:28:05;;;;;;;24.92;16.50;;;26.70;99.90;;;;;;4907529;28;20043;-70
2023/09/12 11:30:31;;;;;;;26.63;18.63;;;27.10;99.90;;;;;;4948250;28;20051;-71
2023/09/12 11:32:58;;;;;;;23.48;17.70;;;27.00;99.90;;;;;;4906742;28;20059;-70
2023/09/12 11:35:27;;;;;;;22.38;16.83;;;27.10;99.90;;;;;;4944931;28;20047;-70
2023/09/12 11:37:57;;;;;;;23.75;17.30;;;27.30;99.90;;;;;;4910996;28;20174;-70
2023/09/12 11:40:26;;;;;;;21.42;15.48;;;27.50;99.90;;;;;;4953765;28;20051;-71
2023/09/12 11:42:52;;;;;;;21.75;15.95;;;28.10;99.90;;;;;;4911554;28;21192;-71
2023/09/12 11:45:21;;;;;;;21.60;14.30;;;27.70;99.90;;;;;;4949306;28;20055;-71
2023/09/12 11:47:48;;;;;;;22.20;15.43;;;27.30;99.50;;;;;;4910469;28;20454;-71
2023/09/12 11:50:33;;;;;;;21.77;14.57;;;27.20;99.10;;;;;;4943228;28;20055;-71
2023/09/12 11:53:01;;;;;;;20.35;13.95;;;27.20;99.20;;;;;;4896855;28;202601;-71
2023/09/12 11:55:30;;;;;;;17.95;13.13;;;27.70;99.90;;;;;;4960668;28;20046;-71
2023/09/12 11:57:57;;;;;;;20.35;12.32;;;28.40;99.90;;;;;;4910467;28;20413;-72
2023/09/12 12:00:26;;;;;;;22.75;12.98;;;29.20;99.90;;;;;;4956177;28;20059;-71
2023/09/12 12:02:53;;;;;;;19.25;11.77;;;29.80;98.00;;;;;;4913393;28;20055;-72
2023/09/12 12:05:20;;;;;;;15.73;10.52;;;30.30;98.90;;;;;;4955303;28;20067;-72
2023/09/12 12:07:47;;;;;;;17.45;10.35;;;30.90;99.30;;;;;;4908623;28;20054;-71
2023/09/12 12:10:13;;;;;;;15.27;10.00;;;30.70;96.60;;;;;;4943726;28;20054;-73
2023/09/12 12:12:39;;;;;;;16.40;9.48;;;30.90;95.90;;;;;;4919324;28;20051;-73
2023/09/12 12:15:12;;;;;;;17.50;10.50;;;30.20;96.70;;;;;;4940896;28;20059;-72
2023/09/12 12:17:40;;;;;;;19.55;10.25;;;29.80;96.10;;;;;;4909410;28;20425;-73
2023/09/12 12:20:10;;;;;;;17.00;9.95;;;29.60;96.20;;;;;;4957898;28;20063;-72
2023/09/12 12:22:40;;;;;;;16.25;9.50;;;29.70;95.80;;;;;;4920878;28;20051;-72
2023/09/12 12:25:12;;;;;;;15.13;9.00;;;29.20;95.80;;;;;;4956010;28;20533;-73
2023/09/12 12:27:39;;;;;;;15.65;9.43;;;28.80;95.40;;;;;;4906973;28;20658;-72
2023/09/12 12:30:10;;;;;;;15.43;9.30;;;28.50;96.10;;;;;;4953560;28;20051;-73